Auburndale, Wisconsin
Current Conditions -  °F | °C
As of 6:54 AM on Friday 28 Nov 2014 (Local Time) from KMFI Reporting Station
Light Snow Light Snow  
Wind Chill: -3°   Ceiling: 6000
Heat Index: 10°   Visibility: 9mi
Dew Point:   Wind: 9mph
Humidity: 80%   Direction: 140°SE
Pressure: 30.11"   Gusts: NA
Location:  44.63°N, 90.01°W
Report Text: KMFI 281254Z AUTO 14008KT 9SM -SN OVC060 M12/M15 A3011 RMK AO2 SNE20B41 SLP228 P0000 T11221150
Loading
Personal Weather Stations






























Interactive Weather Map New forecast layout! Learn more

10-Day Weather Forecast

Advertisements
Track Severe Weather on mobile